Time;durP1;ratioP1;P1;durP2;ratioP2;P2;SDS_P1;SDS_P2;PMS_P1;PMS_P2;Temp;Humidity;BMP_temperature;BMP_pressure;BME280_temperature;BME280_humidity;BME280_pressure;Samples;Min_cycle;Max_cycle;Signal;HPM_P1;HPM_P2
2024/01/17 00:00:20;;;;;;;11.50;7.85;;;;;;;;;;4990175;28;20053;-72
2024/01/17 00:02:46;;;;;;;12.40;9.40;;;;;;;;;;4992430;28;20045;-71
2024/01/17 00:05:12;;;;;;;12.10;7.75;;;;;;;;;;4984590;28;20050;-71
2024/01/17 00:07:38;;;;;;;14.80;9.07;;;;;;;;;;4993136;28;20038;-72
2024/01/17 00:10:04;;;;;;;10.40;7.88;;;;;;;;;;4988579;28;20280;-72
2024/01/17 00:12:30;;;;;;;14.05;8.48;;;;;;;;;;4993545;28;20065;-72
2024/01/17 00:14:56;;;;;;;15.70;8.55;;;;;;;;;;4987851;28;20046;-71
2024/01/17 00:17:23;;;;;;;10.98;7.93;;;;;;;;;;5029221;28;20510;-72
2024/01/17 00:19:50;;;;;;;9.80;7.28;;;;;;;;;;5007358;28;20057;-71
2024/01/17 00:22:16;;;;;;;11.88;8.25;;;;;;;;;;4990992;28;20042;-72
2024/01/17 00:24:43;;;;;;;16.13;8.32;;;;;;;;;;4990341;28;20050;-72
2024/01/17 00:27:09;;;;;;;11.02;8.55;;;;;;;;;;4992238;28;20046;-72
2024/01/17 00:29:36;;;;;;;11.15;9.10;;;;;;;;;;4989199;28;20466;-72
2024/01/17 00:32:02;;;;;;;12.70;9.90;;;;;;;;;;5018459;28;20050;-72
2024/01/17 00:34:28;;;;;;;12.73;8.98;;;;;;;;;;4990986;28;20050;-72
2024/01/17 00:36:57;;;;;;;13.38;9.45;;;;;;;;;;5021907;28;20506;-71
2024/01/17 00:39:23;;;;;;;15.45;9.80;;;;;;;;;;4999803;28;20042;-72
2024/01/17 00:41:49;;;;;;;11.90;9.05;;;;;;;;;;5019522;28;20054;-72
2024/01/17 00:44:18;;;;;;;13.57;10.02;;;;;;;;;;4994366;28;20430;-71
2024/01/17 00:46:45;;;;;;;16.70;10.13;;;;;;;;;;5018180;28;20050;-72
2024/01/17 00:49:14;;;;;;;14.95;9.70;;;;;;;;;;4987186;28;20058;-72
2024/01/17 00:51:40;;;;;;;12.02;9.00;;;;;;;;;;4990437;28;20402;-72
2024/01/17 00:54:06;;;;;;;13.80;8.88;;;;;;;;;;4994291;28;20054;-71
2024/01/17 00:56:34;;;;;;;12.63;10.23;;;;;;;;;;4984146;28;20061;-72
2024/01/17 00:59:00;;;;;;;12.50;10.65;;;;;;;;;;4982658;28;20046;-72
2024/01/17 01:01:26;;;;;;;15.50;10.05;;;;;;;;;;5018581;28;20041;-71
2024/01/17 01:03:52;;;;;;;16.38;11.05;;;;;;;;;;5019859;28;20530;-71
2024/01/17 01:06:18;;;;;;;13.02;10.40;;;;;;;;;;5018927;28;20085;-72
2024/01/17 01:08:44;;;;;;;12.68;10.57;;;;;;;;;;5000743;28;20161;-72
2024/01/17 01:11:10;;;;;;;12.77;9.65;;;;;;;;;;4992136;28;20081;-72
2024/01/17 01:13:36;;;;;;;14.48;10.85;;;;;;;;;;5019773;28;20077;-72
2024/01/17 01:16:03;;;;;;;11.85;8.75;;;;;;;;;;5017527;28;20076;-71
2024/01/17 01:18:29;;;;;;;12.07;9.45;;;;;;;;;;4980746;28;20505;-72
2024/01/17 01:20:57;;;;;;;14.95;9.35;;;;;;;;;;4990141;28;20045;-71
2024/01/17 01:23:24;;;;;;;18.33;11.93;;;;;;;;;;4985817;28;20042;-71
2024/01/17 01:25:53;;;;;;;16.83;10.68;;;;;;;;;;4999390;28;20076;-71
2024/01/17 01:28:19;;;;;;;14.93;10.45;;;;;;;;;;5009964;28;20060;-71
2024/01/17 01:30:46;;;;;;;13.88;10.80;;;;;;;;;;5027765;28;20119;-71
2024/01/17 01:33:12;;;;;;;18.38;11.07;;;;;;;;;;4991995;28;20384;-72
2024/01/17 01:35:38;;;;;;;13.45;9.25;;;;;;;;;;4993303;28;20046;-72
2024/01/17 01:38:04;;;;;;;17.20;11.80;;;;;;;;;;4989553;28;20046;-71
2024/01/17 01:40:30;;;;;;;15.82;12.25;;;;;;;;;;4988218;28;20030;-71
2024/01/17 01:42:58;;;;;;;16.13;11.80;;;;;;;;;;4981984;28;20449;-71
2024/01/17 01:45:24;;;;;;;22.58;10.85;;;;;;;;;;5015718;28;20120;-71
2024/01/17 01:47:51;;;;;;;17.60;12.25;;;;;;;;;;5019900;28;20049;-71
2024/01/17 01:50:17;;;;;;;19.05;11.35;;;;;;;;;;5016143;28;20074;-72
2024/01/17 01:52:43;;;;;;;16.25;12.43;;;;;;;;;;4983163;28;20072;-71
2024/01/17 01:55:13;;;;;;;17.83;10.85;;;;;;;;;;4984737;28;20054;-72
2024/01/17 01:57:40;;;;;;;19.55;13.23;;;;;;;;;;4985168;28;20730;-71
2024/01/17 02:00:06;;;;;;;16.33;11.57;;;;;;;;;;4985505;28;20053;-71
2024/01/17 02:02:33;;;;;;;17.85;12.50;;;;;;;;;;4993553;28;20080;-71
2024/01/17 02:04:59;;;;;;;16.95;12.00;;;;;;;;;;5022483;28;20042;-71
2024/01/17 02:07:25;;;;;;;16.30;11.40;;;;;;;;;;4987104;28;20066;-72
2024/01/17 02:09:51;;;;;;;18.10;13.02;;;;;;;;;;4993946;28;20054;-71
2024/01/17 02:12:18;;;;;;;20.25;13.07;;;;;;;;;;4995145;28;20046;-71
2024/01/17 02:14:44;;;;;;;21.40;13.07;;;;;;;;;;4991455;28;20293;-72
2024/01/17 02:17:10;;;;;;;17.15;12.10;;;;;;;;;;4985136;28;20057;-71
2024/01/17 02:19:36;;;;;;;16.75;12.75;;;;;;;;;;4999418;28;20410;-72
2024/01/17 02:22:02;;;;;;;17.55;12.60;;;;;;;;;;4996192;28;20711;-71
2024/01/17 02:24:28;;;;;;;15.48;11.02;;;;;;;;;;4988987;28;20122;-71
2024/01/17 02:26:59;;;;;;;17.92;12.15;;;;;;;;;;4975388;28;20063;-71
2024/01/17 02:29:25;;;;;;;19.02;13.05;;;;;;;;;;4988556;28;20053;-71
2024/01/17 02:31:51;;;;;;;16.58;12.65;;;;;;;;;;4989419;28;20046;-71
2024/01/17 02:34:17;;;;;;;20.30;11.75;;;;;;;;;;4994102;28;20045;-71
2024/01/17 02:36:43;;;;;;;20.25;13.70;;;;;;;;;;4987932;28;20110;-71
2024/01/17 02:39:10;;;;;;;17.92;13.45;;;;;;;;;;4982442;28;20082;-71
2024/01/17 02:41:37;;;;;;;18.33;13.48;;;;;;;;;;4985286;28;20515;-72
2024/01/17 02:44:03;;;;;;;20.92;13.52;;;;;;;;;;4985961;28;20047;-72
2024/01/17 02:46:29;;;;;;;25.58;14.60;;;;;;;;;;5017994;28;20162;-72
2024/01/17 02:48:55;;;;;;;23.42;13.82;;;;;;;;;;4991707;28;20042;-70
2024/01/17 02:51:27;;;;;;;26.80;15.15;;;;;;;;;;4984400;28;20517;-72
2024/01/17 02:53:53;;;;;;;21.60;14.45;;;;;;;;;;4984699;28;20111;-71
2024/01/17 02:56:19;;;;;;;21.02;14.05;;;;;;;;;;4984793;28;20494;-71
2024/01/17 02:58:45;;;;;;;16.67;12.82;;;;;;;;;;5009153;28;20034;-71
2024/01/17 03:01:13;;;;;;;21.95;13.45;;;;;;;;;;4984950;28;20367;-72
2024/01/17 03:03:40;;;;;;;18.65;13.77;;;;;;;;;;5015570;28;20053;-72
2024/01/17 03:06:06;;;;;;;18.70;13.27;;;;;;;;;;4983192;28;20057;-71
2024/01/17 03:08:32;;;;;;;20.45;15.00;;;;;;;;;;4982201;28;20059;-71
2024/01/17 03:10:58;;;;;;;19.77;13.35;;;;;;;;;;5016344;28;20065;-71
2024/01/17 03:13:24;;;;;;;21.02;13.90;;;;;;;;;;5027857;28;20062;-71
2024/01/17 03:15:50;;;;;;;23.80;14.90;;;;;;;;;;4983952;28;20046;-71
2024/01/17 03:18:19;;;;;;;19.83;14.93;;;;;;;;;;4985582;28;20439;-71
2024/01/17 03:20:45;;;;;;;21.02;14.68;;;;;;;;;;4997098;28;20180;-72
2024/01/17 03:23:14;;;;;;;18.08;13.77;;;;;;;;;;5002826;28;20077;-72
2024/01/17 03:25:40;;;;;;;19.88;14.57;;;;;;;;;;4979423;28;20094;-72
2024/01/17 03:28:06;;;;;;;21.33;14.98;;;;;;;;;;4998562;28;20081;-72
2024/01/17 03:30:34;;;;;;;19.73;14.65;;;;;;;;;;4989477;28;20510;-71
2024/01/17 03:33:00;;;;;;;27.50;14.95;;;;;;;;;;4985595;28;20506;-71
2024/01/17 03:35:26;;;;;;;23.65;15.80;;;;;;;;;;4984320;28;20410;-71
2024/01/17 03:37:52;;;;;;;22.45;13.60;;;;;;;;;;4990417;28;20052;-71
2024/01/17 03:40:21;;;;;;;21.77;14.68;;;;;;;;;;4989295;28;20069;-72
2024/01/17 03:42:47;;;;;;;24.75;16.80;;;;;;;;;;4992192;28;20450;-71
2024/01/17 03:45:13;;;;;;;22.20;16.75;;;;;;;;;;4983650;28;20046;-71
2024/01/17 03:47:39;;;;;;;21.38;14.73;;;;;;;;;;4992912;28;20053;-72
2024/01/17 03:50:05;;;;;;;22.23;15.35;;;;;;;;;;4981224;28;20058;-72
2024/01/17 03:52:31;;;;;;;17.38;12.90;;;;;;;;;;5019296;28;20558;-71
2024/01/17 03:54:57;;;;;;;25.17;16.52;;;;;;;;;;4988161;28;20042;-71
2024/01/17 03:57:23;;;;;;;23.05;16.45;;;;;;;;;;4995959;28;20046;-71
2024/01/17 03:59:49;;;;;;;22.30;16.23;;;;;;;;;;4990655;28;20046;-71
2024/01/17 04:02:18;;;;;;;25.25;16.17;;;;;;;;;;4980937;28;20074;-71
2024/01/17 04:04:45;;;;;;;24.58;15.57;;;;;;;;;;4989241;28;20054;-72
2024/01/17 04:07:12;;;;;;;26.55;17.60;;;;;;;;;;4995002;28;20050;-72
2024/01/17 04:09:38;;;;;;;24.55;17.00;;;;;;;;;;4996250;28;20117;-72
2024/01/17 04:12:04;;;;;;;26.02;17.45;;;;;;;;;;4989287;28;20368;-71
2024/01/17 04:14:30;;;;;;;24.83;17.67;;;;;;;;;;4989421;28;20054;-72
2024/01/17 04:16:56;;;;;;;25.38;17.85;;;;;;;;;;4986509;28;20097;-71
2024/01/17 04:19:24;;;;;;;21.92;16.45;;;;;;;;;;5021587;28;20046;-71
2024/01/17 04:21:56;;;;;;;21.65;15.68;;;;;;;;;;5021487;28;20053;-72
2024/01/17 04:24:23;;;;;;;26.73;14.68;;;;;;;;;;5008951;28;20045;-72
2024/01/17 04:26:49;;;;;;;23.95;17.40;;;;;;;;;;4991944;28;20060;-71
2024/01/17 04:29:15;;;;;;;24.85;18.38;;;;;;;;;;5013760;28;20050;-72
2024/01/17 04:31:41;;;;;;;25.20;17.70;;;;;;;;;;4987825;28;20073;-72
2024/01/17 04:34:07;;;;;;;24.70;16.10;;;;;;;;;;4983372;28;20462;-71
2024/01/17 04:36:33;;;;;;;22.90;18.13;;;;;;;;;;4995837;28;20544;-71
2024/01/17 04:39:00;;;;;;;23.40;16.17;;;;;;;;;;5021071;28;20043;-71
2024/01/17 04:41:26;;;;;;;28.33;17.83;;;;;;;;;;4989299;28;20054;-71
2024/01/17 04:43:52;;;;;;;23.55;15.88;;;;;;;;;;4998224;28;20452;-72
2024/01/17 04:46:18;;;;;;;27.98;18.80;;;;;;;;;;5010884;28;20049;-71
2024/01/17 04:48:45;;;;;;;22.95;16.75;;;;;;;;;;4983945;28;20078;-71
2024/01/17 04:51:11;;;;;;;25.60;17.73;;;;;;;;;;4989314;28;20053;-71
2024/01/17 04:53:41;;;;;;;25.98;18.38;;;;;;;;;;4993424;28;20129;-72
2024/01/17 04:56:07;;;;;;;27.20;17.17;;;;;;;;;;5029473;28;20058;-71
2024/01/17 04:58:34;;;;;;;21.52;17.75;;;;;;;;;;4991236;28;20057;-70
2024/01/17 05:01:00;;;;;;;25.05;17.45;;;;;;;;;;4998209;28;20053;-70
2024/01/17 05:03:27;;;;;;;23.95;17.85;;;;;;;;;;4987855;28;20510;-69
2024/01/17 05:05:53;;;;;;;24.15;18.45;;;;;;;;;;4985282;28;20081;-70
2024/01/17 05:08:19;;;;;;;28.42;18.38;;;;;;;;;;4997961;28;20069;-70
2024/01/17 05:10:46;;;;;;;28.23;18.92;;;;;;;;;;5029387;28;20569;-70
2024/01/17 05:13:13;;;;;;;21.73;16.65;;;;;;;;;;5024293;28;20050;-70
2024/01/17 05:15:39;;;;;;;25.60;19.65;;;;;;;;;;4991471;28;20057;-70
2024/01/17 05:18:06;;;;;;;25.30;17.67;;;;;;;;;;4982896;28;20064;-70
2024/01/17 05:20:32;;;;;;;28.25;20.17;;;;;;;;;;4984359;28;20487;-70
2024/01/17 05:22:58;;;;;;;28.45;18.90;;;;;;;;;;4988842;28;20146;-70
2024/01/17 05:25:24;;;;;;;27.15;17.92;;;;;;;;;;5030160;28;20054;-70
2024/01/17 05:27:52;;;;;;;26.05;19.67;;;;;;;;;;5023073;28;20046;-70
2024/01/17 05:30:21;;;;;;;25.55;18.38;;;;;;;;;;4994421;28;20057;-69
2024/01/17 05:32:47;;;;;;;25.88;18.63;;;;;;;;;;5004777;28;20054;-70
2024/01/17 05:35:17;;;;;;;30.42;20.95;;;;;;;;;;4988513;28;20059;-70
2024/01/17 05:37:43;;;;;;;25.83;18.42;;;;;;;;;;4994893;28;20054;-70
2024/01/17 05:40:09;;;;;;;28.52;20.20;;;;;;;;;;4991922;28;20157;-70
2024/01/17 05:42:36;;;;;;;28.75;20.38;;;;;;;;;;4990333;28;20070;-70
2024/01/17 05:45:06;;;;;;;31.35;22.08;;;;;;;;;;4996886;28;20406;-69
2024/01/17 05:47:32;;;;;;;35.92;21.63;;;;;;;;;;5010197;28;20050;-70
2024/01/17 05:49:58;;;;;;;28.73;21.63;;;;;;;;;;5027702;28;20046;-70
2024/01/17 05:52:24;;;;;;;31.77;20.48;;;;;;;;;;5021263;28;20054;-70
2024/01/17 05:54:50;;;;;;;27.45;21.27;;;;;;;;;;4991032;28;20491;-70
2024/01/17 05:57:16;;;;;;;27.80;21.15;;;;;;;;;;5000408;28;20039;-70
2024/01/17 05:59:43;;;;;;;29.08;20.40;;;;;;;;;;4988725;28;20047;-70
2024/01/17 06:02:09;;;;;;;33.67;22.60;;;;;;;;;;4992010;28;20101;-70
2024/01/17 06:04:35;;;;;;;30.77;21.30;;;;;;;;;;4982184;28;20042;-70
2024/01/17 06:07:01;;;;;;;29.60;19.92;;;;;;;;;;5030384;28;20046;-70
2024/01/17 06:09:27;;;;;;;24.90;18.90;;;;;;;;;;4992080;28;20060;-70
2024/01/17 06:11:53;;;;;;;25.77;19.25;;;;;;;;;;4983903;28;20129;-70
2024/01/17 06:14:19;;;;;;;27.73;21.27;;;;;;;;;;4996510;28;20439;-71
2024/01/17 06:16:47;;;;;;;35.75;24.60;;;;;;;;;;5011023;28;20046;-70
2024/01/17 06:19:15;;;;;;;32.10;19.83;;;;;;;;;;5019121;28;20050;-70
2024/01/17 06:21:41;;;;;;;26.05;18.42;;;;;;;;;;5023043;28;20138;-70
2024/01/17 06:24:07;;;;;;;30.40;21.85;;;;;;;;;;4991360;28;20454;-70
2024/01/17 06:26:33;;;;;;;31.55;21.40;;;;;;;;;;4989385;28;20047;-70
2024/01/17 06:28:59;;;;;;;24.35;18.73;;;;;;;;;;4989562;28;20038;-70
2024/01/17 06:31:25;;;;;;;30.40;22.08;;;;;;;;;;4987812;28;20092;-70
2024/01/17 06:33:52;;;;;;;27.80;20.58;;;;;;;;;;4990658;28;20049;-70
2024/01/17 06:36:18;;;;;;;27.95;18.80;;;;;;;;;;5019814;28;20100;-70
2024/01/17 06:38:44;;;;;;;27.95;19.80;;;;;;;;;;5027750;28;20046;-70
2024/01/17 06:41:10;;;;;;;28.95;19.75;;;;;;;;;;4985511;28;20198;-70
2024/01/17 06:43:36;;;;;;;28.40;18.60;;;;;;;;;;4988960;28;20104;-70
2024/01/17 06:46:05;;;;;;;24.85;19.42;;;;;;;;;;4991259;28;20050;-70
2024/01/17 06:48:32;;;;;;;28.33;18.55;;;;;;;;;;4978714;28;20102;-70
2024/01/17 06:50:58;;;;;;;29.08;19.95;;;;;;;;;;4987992;28;20039;-69
2024/01/17 06:53:24;;;;;;;26.27;19.63;;;;;;;;;;4984596;28;20050;-70
2024/01/17 06:55:59;;;;;;;30.05;19.40;;;;;;;;;;4989216;28;20046;-70
2024/01/17 06:58:25;;;;;;;24.65;18.90;;;;;;;;;;4992954;28;20129;-69
2024/01/17 07:00:51;;;;;;;29.67;21.35;;;;;;;;;;4991697;28;20486;-70
2024/01/17 07:03:17;;;;;;;22.40;16.80;;;;;;;;;;4992209;28;20165;-70
2024/01/17 07:05:43;;;;;;;30.20;19.90;;;;;;;;;;4989591;28;20053;-70
2024/01/17 07:08:09;;;;;;;28.48;19.52;;;;;;;;;;4984999;28;20109;-71
2024/01/17 07:10:36;;;;;;;26.48;19.42;;;;;;;;;;4981037;28;20062;-70
2024/01/17 07:13:02;;;;;;;27.95;18.42;;;;;;;;;;4977456;28;20390;-70
2024/01/17 07:15:29;;;;;;;27.90;20.02;;;;;;;;;;5013458;28;20073;-70
2024/01/17 07:17:55;;;;;;;26.77;20.35;;;;;;;;;;5014828;28;20060;-70
2024/01/17 07:20:21;;;;;;;28.25;20.65;;;;;;;;;;5013955;28;20502;-70
2024/01/17 07:22:47;;;;;;;29.13;18.80;;;;;;;;;;4980729;28;20153;-70
2024/01/17 07:25:13;;;;;;;24.70;18.38;;;;;;;;;;4982652;28;20066;-70
2024/01/17 07:27:44;;;;;;;33.22;21.10;;;;;;;;;;4984075;28;20069;-70
2024/01/17 07:30:11;;;;;;;28.02;20.15;;;;;;;;;;4982305;28;20042;-70
2024/01/17 07:32:38;;;;;;;27.23;17.48;;;;;;;;;;4979969;28;20045;-70
2024/01/17 07:35:04;;;;;;;27.67;19.80;;;;;;;;;;5014641;28;20078;-70
2024/01/17 07:37:31;;;;;;;26.45;18.52;;;;;;;;;;4980993;28;20050;-70
2024/01/17 07:39:57;;;;;;;30.23;19.67;;;;;;;;;;4991373;28;20055;-69
2024/01/17 07:42:23;;;;;;;28.30;20.42;;;;;;;;;;5028758;28;20038;-69
2024/01/17 07:44:50;;;;;;;33.75;21.02;;;;;;;;;;4977959;28;20063;-69
2024/01/17 07:47:16;;;;;;;33.83;19.73;;;;;;;;;;4987712;28;20050;-69
2024/01/17 07:49:42;;;;;;;24.23;18.55;;;;;;;;;;5022005;28;20057;-69
2024/01/17 07:52:08;;;;;;;27.00;19.83;;;;;;;;;;4987275;28;20407;-69
2024/01/17 07:54:34;;;;;;;31.92;19.90;;;;;;;;;;4981384;28;20050;-69
2024/01/17 07:57:00;;;;;;;28.27;19.63;;;;;;;;;;4987759;28;20046;-69
2024/01/17 07:59:27;;;;;;;28.40;20.25;;;;;;;;;;5003545;28;20073;-69
2024/01/17 08:01:54;;;;;;;28.83;20.38;;;;;;;;;;4992854;28;20069;-69
2024/01/17 08:04:20;;;;;;;25.92;18.95;;;;;;;;;;4992445;28;20073;-69
2024/01/17 08:06:46;;;;;;;25.40;18.58;;;;;;;;;;4980723;28;20051;-70
2024/01/17 08:09:21;;;;;;;32.78;20.70;;;;;;;;;;4988354;28;20181;-70
2024/01/17 08:11:48;;;;;;;27.70;20.88;;;;;;;;;;4991735;28;20042;-69
2024/01/17 08:14:14;;;;;;;25.83;19.08;;;;;;;;;;5031582;28;20058;-69
2024/01/17 08:16:40;;;;;;;24.20;19.08;;;;;;;;;;4988364;28;20109;-69
2024/01/17 08:19:06;;;;;;;30.58;20.17;;;;;;;;;;4996014;28;20441;-71
2024/01/17 08:21:32;;;;;;;28.05;19.10;;;;;;;;;;5000213;28;20748;-69
2024/01/17 08:24:01;;;;;;;28.23;19.42;;;;;;;;;;4975745;28;20042;-69
2024/01/17 08:26:27;;;;;;;27.20;20.65;;;;;;;;;;5014350;28;20072;-69
2024/01/17 08:28:53;;;;;;;26.35;20.15;;;;;;;;;;4997523;28;20490;-69
2024/01/17 08:31:19;;;;;;;26.38;19.33;;;;;;;;;;4985181;28;20398;-69
2024/01/17 08:33:45;;;;;;;27.17;20.88;;;;;;;;;;4986892;28;20043;-70
2024/01/17 08:36:14;;;;;;;27.38;19.08;;;;;;;;;;4989651;28;20045;-69
2024/01/17 08:38:40;;;;;;;30.23;19.55;;;;;;;;;;4993225;28;20653;-69
2024/01/17 08:41:07;;;;;;;29.33;19.58;;;;;;;;;;4990922;28;20057;-69
2024/01/17 08:43:33;;;;;;;24.75;18.95;;;;;;;;;;5000094;28;20061;-69
2024/01/17 08:46:00;;;;;;;26.60;19.02;;;;;;;;;;5038475;28;20046;-69
2024/01/17 08:48:26;;;;;;;27.00;19.38;;;;;;;;;;4996620;28;20058;-69
2024/01/17 08:50:53;;;;;;;26.60;18.98;;;;;;;;;;4988876;28;20046;-70
2024/01/17 08:53:19;;;;;;;26.30;18.38;;;;;;;;;;4992818;28;20177;-69
2024/01/17 08:55:45;;;;;;;26.20;18.77;;;;;;;;;;4990525;28;20054;-69
2024/01/17 08:58:11;;;;;;;26.92;18.83;;;;;;;;;;4988866;28;20129;-70
2024/01/17 09:00:37;;;;;;;27.88;19.70;;;;;;;;;;4983148;28;20104;-70
2024/01/17 09:03:04;;;;;;;27.42;19.48;;;;;;;;;;4988252;28;20102;-70
2024/01/17 09:05:30;;;;;;;24.25;17.77;;;;;;;;;;5020803;28;20057;-70
2024/01/17 09:07:57;;;;;;;26.20;20.02;;;;;;;;;;4986601;28;20042;-69
2024/01/17 09:10:23;;;;;;;28.00;18.23;;;;;;;;;;4989375;28;20061;-69
2024/01/17 09:12:50;;;;;;;29.05;18.67;;;;;;;;;;4989688;28;20096;-70
2024/01/17 09:15:16;;;;;;;25.88;18.83;;;;;;;;;;4986771;28;20589;-69
2024/01/17 09:17:42;;;;;;;27.55;19.55;;;;;;;;;;4988426;28;20513;-70
2024/01/17 09:20:08;;;;;;;24.48;17.52;;;;;;;;;;4987089;28;20054;-70
2024/01/17 09:22:35;;;;;;;30.80;19.92;;;;;;;;;;4987632;28;20046;-69
2024/01/17 09:25:01;;;;;;;23.65;19.23;;;;;;;;;;4988890;28;20044;-69
2024/01/17 09:27:27;;;;;;;24.73;18.17;;;;;;;;;;4990213;28;20102;-69
2024/01/17 09:29:53;;;;;;;27.13;19.08;;;;;;;;;;4989126;28;20042;-70
2024/01/17 09:32:19;;;;;;;25.95;19.35;;;;;;;;;;4988419;28;20116;-70
2024/01/17 09:34:47;;;;;;;26.98;19.55;;;;;;;;;;4987714;28;20050;-69
2024/01/17 09:37:14;;;;;;;26.42;18.90;;;;;;;;;;5022181;28;20100;-69
2024/01/17 09:39:40;;;;;;;27.17;18.88;;;;;;;;;;4991252;28;20784;-69
2024/01/17 09:42:07;;;;;;;27.77;19.50;;;;;;;;;;4987661;28;20056;-70
2024/01/17 09:44:33;;;;;;;26.42;19.13;;;;;;;;;;4990323;28;20054;-69
2024/01/17 09:47:00;;;;;;;27.23;18.42;;;;;;;;;;4990299;28;20125;-69
2024/01/17 09:49:27;;;;;;;28.42;19.85;;;;;;;;;;5020615;28;21825;-69
2024/01/17 09:51:56;;;;;;;27.83;19.63;;;;;;;;;;4986212;28;20423;-70
2024/01/17 09:54:25;;;;;;;27.15;19.15;;;;;;;;;;4989384;28;20073;-71
2024/01/17 09:56:52;;;;;;;28.60;18.38;;;;;;;;;;4986416;28;20057;-71
2024/01/17 09:59:23;;;;;;;27.92;19.20;;;;;;;;;;4988282;28;20042;-70
2024/01/17 10:01:49;;;;;;;26.30;17.08;;;;;;;;;;4990071;28;20078;-71
2024/01/17 10:04:16;;;;;;;24.60;17.33;;;;;;;;;;4987378;28;20050;-71
2024/01/17 10:06:43;;;;;;;30.05;19.17;;;;;;;;;;4984984;28;20046;-71
2024/01/17 10:09:10;;;;;;;27.55;18.00;;;;;;;;;;5019664;28;20530;-71
2024/01/17 10:11:36;;;;;;;27.33;17.77;;;;;;;;;;4987779;28;20046;-70
2024/01/17 10:14:03;;;;;;;26.88;17.80;;;;;;;;;;4989401;28;20078;-71
2024/01/17 10:16:31;;;;;;;25.75;17.25;;;;;;;;;;4986161;28;20186;-71
2024/01/17 10:18:57;;;;;;;22.60;17.75;;;;;;;;;;4988708;28;20093;-70
2024/01/17 10:21:23;;;;;;;23.83;16.58;;;;;;;;;;4986783;28;20185;-70
2024/01/17 10:23:49;;;;;;;24.00;17.67;;;;;;;;;;4986676;28;20119;-71
2024/01/17 10:26:15;;;;;;;25.38;16.05;;;;;;;;;;4985764;28;20062;-71
2024/01/17 10:28:41;;;;;;;25.83;17.58;;;;;;;;;;4986349;28;20042;-70
2024/01/17 10:31:10;;;;;;;26.55;18.20;;;;;;;;;;5021137;28;20050;-71
2024/01/17 10:33:39;;;;;;;23.70;16.90;;;;;;;;;;4990463;28;20035;-70
2024/01/17 10:36:05;;;;;;;23.00;16.60;;;;;;;;;;4988550;28;20050;-71
2024/01/17 10:38:34;;;;;;;25.27;17.27;;;;;;;;;;4988902;28;20049;-71
2024/01/17 10:41:05;;;;;;;22.20;15.45;;;;;;;;;;4987917;28;20042;-71
2024/01/17 10:43:31;;;;;;;26.33;17.08;;;;;;;;;;4985842;28;20053;-70
2024/01/17 10:45:57;;;;;;;22.42;15.88;;;;;;;;;;4988884;28;20457;-71
2024/01/17 10:48:24;;;;;;;24.23;15.40;;;;;;;;;;4988405;28;20053;-70
2024/01/17 10:50:52;;;;;;;21.63;16.55;;;;;;;;;;4983989;28;20046;-70
2024/01/17 10:53:19;;;;;;;23.58;17.23;;;;;;;;;;4981649;28;20052;-71
2024/01/17 10:55:47;;;;;;;27.30;18.13;;;;;;;;;;5021289;28;20050;-71
2024/01/17 10:58:15;;;;;;;25.00;17.48;;;;;;;;;;5019594;28;20541;-71
2024/01/17 11:00:43;;;;;;;25.85;15.80;;;;;;;;;;4983425;28;20516;-71
2024/01/17 11:03:10;;;;;;;26.20;17.75;;;;;;;;;;4986154;28;20042;-71
2024/01/17 11:05:45;;;;;;;25.92;17.13;;;;;;;;;;4988838;28;20053;-71
2024/01/17 11:08:12;;;;;;;24.17;17.55;;;;;;;;;;4985290;28;20054;-70
2024/01/17 11:10:41;;;;;;;22.52;16.17;;;;;;;;;;4988282;28;20054;-71
2024/01/17 11:13:09;;;;;;;24.17;17.67;;;;;;;;;;4984984;28;20133;-71
2024/01/17 11:15:38;;;;;;;22.65;17.35;;;;;;;;;;4989024;28;20053;-71
2024/01/17 11:18:05;;;;;;;24.80;17.40;;;;;;;;;;4987111;28;20062;-71
2024/01/17 11:20:31;;;;;;;27.25;18.40;;;;;;;;;;4988210;28;20125;-71
2024/01/17 11:22:58;;;;;;;30.30;20.25;;;;;;;;;;4990435;28;20567;-70
2024/01/17 11:25:28;;;;;;;26.85;18.33;;;;;;;;;;4987137;28;20134;-71
2024/01/17 11:28:14;;;;;;;27.15;19.13;;;;;;;;;;4992246;28;20042;-70
2024/01/17 11:30:47;;;;;;;23.40;18.45;;;;;;;;;;4992931;28;20067;-70
2024/01/17 11:33:13;;;;;;;27.77;18.50;;;;;;;;;;4991557;28;20046;-71
2024/01/17 11:35:43;;;;;;;28.08;18.92;;;;;;;;;;4992083;28;20177;-71
2024/01/17 11:38:13;;;;;;;30.35;18.92;;;;;;;;;;4986212;28;20061;-71
2024/01/17 11:40:40;;;;;;;27.85;19.38;;;;;;;;;;4990785;28;20486;-71
2024/01/17 11:43:07;;;;;;;28.17;20.05;;;;;;;;;;4988640;28;20046;-70
2024/01/17 11:45:33;;;;;;;28.27;19.35;;;;;;;;;;4989638;28;20570;-70
2024/01/17 11:48:12;;;;;;;28.25;19.83;;;;;;;;;;5019535;28;20129;-69
2024/01/17 11:50:39;;;;;;;31.65;21.42;;;;;;;;;;4992097;28;20057;-71
2024/01/17 11:53:05;;;;;;;22.83;18.38;;;;;;;;;;4985705;28;20175;-70
2024/01/17 11:55:31;;;;;;;30.63;20.58;;;;;;;;;;4991417;28;20192;-71
2024/01/17 11:57:57;;;;;;;29.33;20.58;;;;;;;;;;4988660;28;20054;-70
2024/01/17 12:00:25;;;;;;;29.08;20.48;;;;;;;;;;4986285;28;20073;-71
2024/01/17 12:02:51;;;;;;;29.52;20.65;;;;;;;;;;4986813;28;20097;-71
2024/01/17 12:05:17;;;;;;;26.08;20.00;;;;;;;;;;4992375;28;20046;-70
2024/01/17 12:07:49;;;;;;;27.17;20.45;;;;;;;;;;4979832;28;20046;-70
2024/01/17 12:10:15;;;;;;;26.33;19.65;;;;;;;;;;4989977;28;20102;-71
2024/01/17 12:12:42;;;;;;;30.35;20.65;;;;;;;;;;4991329;28;20055;-71
2024/01/17 12:15:12;;;;;;;29.55;20.80;;;;;;;;;;4986371;28;20056;-71
2024/01/17 12:17:41;;;;;;;30.95;22.50;;;;;;;;;;4983931;28;20074;-71
2024/01/17 12:20:08;;;;;;;31.48;20.90;;;;;;;;;;4989838;28;20053;-71
2024/01/17 12:22:34;;;;;;;28.13;20.77;;;;;;;;;;4991606;28;20551;-70
2024/01/17 12:25:01;;;;;;;27.90;19.52;;;;;;;;;;4984148;28;20046;-70
2024/01/17 12:27:30;;;;;;;28.75;20.40;;;;;;;;;;4992216;28;20058;-70
2024/01/17 12:30:01;;;;;;;38.60;23.05;;;;;;;;;;4987061;28;20510;-70
2024/01/17 12:32:27;;;;;;;31.02;23.13;;;;;;;;;;4987792;28;20702;-70
2024/01/17 12:34:54;;;;;;;29.58;21.33;;;;;;;;;;4984699;28;20939;-70
2024/01/17 12:37:19;;;;;;;29.30;19.23;;;;;;;;;;5015386;28;20078;-70
2024/01/17 12:39:45;;;;;;;32.75;21.08;;;;;;;;;;4989968;28;20038;-70
2024/01/17 12:42:12;;;;;;;28.73;20.38;;;;;;;;;;5019288;28;20553;-71
2024/01/17 12:44:38;;;;;;;27.00;20.27;;;;;;;;;;4987546;28;20046;-71
2024/01/17 12:47:04;;;;;;;29.60;20.95;;;;;;;;;;4988397;28;20129;-70
2024/01/17 12:49:30;;;;;;;23.40;19.33;;;;;;;;;;4999210;28;20407;-70
2024/01/17 12:51:56;;;;;;;30.52;20.27;;;;;;;;;;5022272;28;20046;-69
2024/01/17 12:54:23;;;;;;;32.70;20.55;;;;;;;;;;4992896;28;20086;-70
2024/01/17 12:56:51;;;;;;;26.73;19.38;;;;;;;;;;4986599;28;20455;-70
2024/01/17 12:59:17;;;;;;;32.47;21.15;;;;;;;;;;4974280;28;20039;-70
2024/01/17 13:01:43;;;;;;;27.65;20.35;;;;;;;;;;5013991;28;20055;-70
2024/01/17 13:04:09;;;;;;;29.52;20.20;;;;;;;;;;4991274;28;20070;-70
2024/01/17 13:06:45;;;;;;;30.15;21.33;;;;;;;;;;4991869;28;20058;-70
2024/01/17 13:09:18;;;;;;;30.00;21.27;;;;;;;;;;4983924;28;20062;-70
2024/01/17 13:11:50;;;;;;;30.70;20.58;;;;;;;;;;4984333;28;20046;-71
2024/01/17 13:14:20;;;;;;;30.30;23.20;;;;;;;;;;4993674;28;20054;-71
2024/01/17 13:16:46;;;;;;;31.75;23.13;;;;;;;;;;5000182;28;20426;-70
2024/01/17 13:19:13;;;;;;;31.75;21.35;;;;;;;;;;4990713;28;20046;-70
2024/01/17 13:21:41;;;;;;;31.73;20.63;;;;;;;;;;4997319;28;20055;-70
2024/01/17 13:24:13;;;;;;;28.45;20.75;;;;;;;;;;4987486;28;20126;-70
2024/01/17 13:26:39;;;;;;;29.50;20.50;;;;;;;;;;4981999;28;20053;-70
2024/01/17 13:29:06;;;;;;;22.45;19.33;;;;;;;;;;4986758;28;20105;-70
2024/01/17 13:31:32;;;;;;;31.52;21.25;;;;;;;;;;4986586;28;20541;-71
2024/01/17 13:33:58;;;;;;;32.38;21.88;;;;;;;;;;4989526;28;20434;-70
2024/01/17 13:36:28;;;;;;;29.52;20.23;;;;;;;;;;4989135;28;20478;-70
2024/01/17 13:38:54;;;;;;;28.15;20.67;;;;;;;;;;4986455;28;20053;-70
2024/01/17 13:41:21;;;;;;;31.23;22.88;;;;;;;;;;4986684;28;20042;-71
2024/01/17 13:43:47;;;;;;;30.75;21.00;;;;;;;;;;4983345;28;20042;-70
2024/01/17 13:46:13;;;;;;;29.73;21.08;;;;;;;;;;4986456;28;20817;-70
2024/01/17 13:48:39;;;;;;;31.20;22.48;;;;;;;;;;4995824;28;20330;-70
2024/01/17 13:51:06;;;;;;;31.25;21.00;;;;;;;;;;4981768;28;20092;-70
2024/01/17 13:53:32;;;;;;;28.88;20.50;;;;;;;;;;4988812;28;20045;-71
2024/01/17 13:56:05;;;;;;;27.30;20.45;;;;;;;;;;4993094;28;20047;-70
2024/01/17 13:58:32;;;;;;;29.48;19.67;;;;;;;;;;4984720;28;20125;-70
2024/01/17 14:00:59;;;;;;;28.40;20.05;;;;;;;;;;4990940;28;20367;-71
2024/01/17 14:03:26;;;;;;;29.92;19.92;;;;;;;;;;4986110;28;20050;-70
2024/01/17 14:05:53;;;;;;;27.38;21.27;;;;;;;;;;4982967;28;20093;-71
2024/01/17 14:08:19;;;;;;;29.60;21.30;;;;;;;;;;4986826;28;20054;-71
2024/01/17 14:10:45;;;;;;;31.52;21.83;;;;;;;;;;4986418;28;20387;-71
2024/01/17 14:13:13;;;;;;;32.83;21.23;;;;;;;;;;4987961;28;20116;-71
2024/01/17 14:15:42;;;;;;;29.48;21.40;;;;;;;;;;5013831;28;20967;-71